createdAt,value
2023-03-02T00:01:41.685Z,2.40
2023-03-02T00:04:11.867Z,2.40
2023-03-02T00:06:39.670Z,2.30
2023-03-02T00:09:07.133Z,2.30
2023-03-02T00:11:35.820Z,2.30
2023-03-02T00:14:03.274Z,2.20
2023-03-02T00:16:31.026Z,2.10
2023-03-02T00:18:58.557Z,2.10
2023-03-02T00:21:25.938Z,2.10
2023-03-02T00:23:53.715Z,2.00
2023-03-02T00:26:21.049Z,2.10
2023-03-02T00:28:48.228Z,2.10
2023-03-02T00:31:15.721Z,2.00
2023-03-02T00:33:43.072Z,1.90
2023-03-02T00:36:21.332Z,1.80
2023-03-02T00:38:48.997Z,1.90
2023-03-02T00:41:16.744Z,1.80
2023-03-02T00:43:43.930Z,1.70
2023-03-02T00:46:12.344Z,1.70
2023-03-02T00:48:39.622Z,1.60
2023-03-02T00:51:07.890Z,1.60
2023-03-02T00:53:36.394Z,1.60
2023-03-02T00:56:04.848Z,1.60
2023-03-02T00:58:32.264Z,1.60
2023-03-02T01:00:59.825Z,1.50
2023-03-02T01:03:27.316Z,1.40
2023-03-02T01:05:56.425Z,1.40
2023-03-02T01:08:25.336Z,1.30
2023-03-02T01:10:54.343Z,1.30
2023-03-02T01:13:22.153Z,1.20
2023-03-02T01:15:49.644Z,1.20
2023-03-02T01:18:16.869Z,1.20
2023-03-02T01:20:43.974Z,1.20
2023-03-02T01:23:11.114Z,1.20
2023-03-02T01:25:39.331Z,1.20
2023-03-02T01:28:06.444Z,1.20
2023-03-02T01:30:33.932Z,1.20
2023-03-02T01:33:01.071Z,1.20
2023-03-02T01:35:28.441Z,1.20
2023-03-02T01:37:55.632Z,1.00
2023-03-02T01:40:23.002Z,1.00
2023-03-02T01:42:58.355Z,0.90
2023-03-02T01:45:45.769Z,0.80
2023-03-02T01:48:16.746Z,0.60
2023-03-02T01:50:45.351Z,0.50
2023-03-02T01:53:15.078Z,0.50
2023-03-02T01:55:44.776Z,0.40
2023-03-02T01:58:15.452Z,0.40
2023-03-02T02:00:43.455Z,0.30
2023-03-02T02:03:22.323Z,0.30
2023-03-02T02:06:20.226Z,0.20
2023-03-02T02:08:48.650Z,0.20
2023-03-02T02:11:16.112Z,0.10
2023-03-02T02:13:44.484Z,-0.10
2023-03-02T02:16:12.209Z,-0.30
2023-03-02T02:18:41.381Z,-0.30
2023-03-02T02:21:09.126Z,-0.20
2023-03-02T02:23:45.456Z,-0.30
2023-03-02T02:26:12.565Z,-0.40
2023-03-02T02:28:52.280Z,-0.40
2023-03-02T02:31:26.792Z,-0.60
2023-03-02T02:34:00.165Z,-0.60
2023-03-02T02:36:34.231Z,-0.60
2023-03-02T02:39:06.106Z,-0.70
2023-03-02T02:41:38.215Z,-0.60
2023-03-02T02:44:06.128Z,-0.60
2023-03-02T02:46:34.653Z,-0.70
2023-03-02T02:49:04.461Z,-0.70
2023-03-02T02:51:33.397Z,-0.70
2023-03-02T02:54:03.041Z,-0.70
2023-03-02T02:56:36.852Z,-0.60
2023-03-02T02:59:17.278Z,-0.70
2023-03-02T03:01:46.534Z,-0.70
2023-03-02T03:04:18.875Z,-0.70
2023-03-02T03:07:03.802Z,-0.70
2023-03-02T03:09:32.364Z,-0.70
2023-03-02T03:12:15.725Z,-0.70
2023-03-02T03:14:44.511Z,-0.90
2023-03-02T03:17:15.217Z,-0.90
2023-03-02T03:19:46.109Z,-0.90
2023-03-02T03:22:15.312Z,-0.90
2023-03-02T03:24:44.558Z,-0.90
2023-03-02T03:27:14.811Z,-0.90
2023-03-02T03:29:48.517Z,-1.00
2023-03-02T03:32:15.973Z,-1.00
2023-03-02T03:34:43.690Z,-1.10
2023-03-02T03:37:14.187Z,-1.10
2023-03-02T03:39:42.194Z,-1.10
2023-03-02T03:42:09.778Z,-1.20
2023-03-02T03:44:36.862Z,-1.10
2023-03-02T03:47:04.153Z,-1.20
2023-03-02T03:49:31.292Z,-1.20
2023-03-02T03:51:58.788Z,-1.20
2023-03-02T03:54:25.877Z,-1.20
2023-03-02T03:56:53.060Z,-1.30
2023-03-02T03:59:23.683Z,-1.30
2023-03-02T04:01:55.143Z,-1.40
2023-03-02T04:04:28.953Z,-1.40
2023-03-02T04:06:56.844Z,-1.30
2023-03-02T04:09:25.392Z,-1.30
2023-03-02T04:11:54.101Z,-1.20
2023-03-02T04:14:24.211Z,-1.10
2023-03-02T04:16:52.118Z,-1.20
2023-03-02T04:19:19.868Z,-1.20
2023-03-02T04:21:53.260Z,-1.30
2023-03-02T04:24:22.503Z,-1.30
2023-03-02T04:26:50.564Z,-1.40
2023-03-02T04:29:18.864Z,-1.30
2023-03-02T04:31:46.260Z,-1.40
2023-03-02T04:34:13.400Z,-1.40
2023-03-02T04:36:41.454Z,-1.50
2023-03-02T04:39:09.238Z,-1.50
2023-03-02T04:41:37.264Z,-1.50
2023-03-02T04:44:05.082Z,-1.60
2023-03-02T04:46:34.653Z,-1.60
2023-03-02T04:49:02.805Z,-1.60
2023-03-02T04:51:33.221Z,-1.70
2023-03-02T04:54:03.787Z,-1.70
2023-03-02T04:56:31.871Z,-1.60
2023-03-02T04:58:59.306Z,-1.60
2023-03-02T05:01:27.793Z,-1.60
2023-03-02T05:03:55.366Z,-1.70
2023-03-02T05:06:24.758Z,-1.70
2023-03-02T05:08:53.544Z,-1.70
2023-03-02T05:11:24.116Z,-1.70
2023-03-02T05:13:54.187Z,-1.60
2023-03-02T05:16:22.916Z,-1.60
2023-03-02T05:18:50.828Z,-1.60
2023-03-02T05:21:18.857Z,-1.60
2023-03-02T05:23:46.383Z,-1.60
2023-03-02T05:26:14.782Z,-1.60
2023-03-02T05:28:44.209Z,-1.50
2023-03-02T05:31:19.379Z,-1.50
2023-03-02T05:33:47.092Z,-1.50
2023-03-02T05:36:14.247Z,-1.50
2023-03-02T05:38:41.365Z,-1.60
2023-03-02T05:41:08.498Z,-1.60
2023-03-02T05:43:36.529Z,-1.60
2023-03-02T05:46:03.833Z,-1.60
2023-03-02T05:48:31.771Z,-1.60
2023-03-02T05:50:59.578Z,-1.50
2023-03-02T05:53:26.689Z,-1.60
2023-03-02T05:55:54.275Z,-1.50
2023-03-02T05:58:21.730Z,-1.50
2023-03-02T06:00:49.888Z,-1.50
2023-03-02T06:03:17.637Z,-1.40
2023-03-02T06:05:45.363Z,-1.40
2023-03-02T06:08:12.712Z,-1.30
2023-03-02T06:10:40.194Z,-1.30
2023-03-02T06:13:07.629Z,-1.30
2023-03-02T06:15:35.067Z,-1.40
2023-03-02T06:18:02.525Z,-1.40
2023-03-02T06:20:29.944Z,-1.30
2023-03-02T06:22:57.327Z,-1.30
2023-03-02T06:25:25.555Z,-1.30
2023-03-02T06:27:53.995Z,-1.30
2023-03-02T06:30:23.659Z,-1.30
2023-03-02T06:32:51.233Z,-1.30
2023-03-02T06:35:19.049Z,-1.20
2023-03-02T06:37:46.400Z,-1.20
2023-03-02T06:40:14.317Z,-1.20
2023-03-02T06:42:42.669Z,-1.10
2023-03-02T06:45:11.600Z,-1.00
2023-03-02T06:47:39.441Z,-1.00
2023-03-02T06:50:08.011Z,-0.90
2023-03-02T06:52:35.611Z,-0.80
2023-03-02T06:55:04.328Z,-0.80
2023-03-02T06:57:34.142Z,-0.80
2023-03-02T07:00:07.070Z,-0.80
2023-03-02T07:02:34.331Z,-0.80
2023-03-02T07:05:01.571Z,-0.70
2023-03-02T07:07:29.085Z,-0.70
2023-03-02T07:09:56.300Z,-0.70
2023-03-02T07:12:23.712Z,-0.70
2023-03-02T07:14:50.906Z,-0.70
2023-03-02T07:17:18.035Z,-0.60
2023-03-02T07:19:45.433Z,-0.60
2023-03-02T07:22:13.076Z,-0.50
2023-03-02T07:24:40.736Z,-0.50
2023-03-02T07:27:08.154Z,-0.40
2023-03-02T07:29:35.583Z,-0.20
2023-03-02T07:32:03.014Z,-0.20
2023-03-02T07:34:30.432Z,-0.20
2023-03-02T07:36:58.026Z,0.00
2023-03-02T07:39:29.454Z,0.20
2023-03-02T07:42:01.411Z,0.40
2023-03-02T07:44:29.611Z,0.50
2023-03-02T07:46:57.360Z,0.80
2023-03-02T07:49:24.987Z,1.00
2023-03-02T07:51:52.830Z,1.20
2023-03-02T07:54:20.608Z,1.50
2023-03-02T07:56:48.353Z,1.80
2023-03-02T07:59:15.452Z,2.40
2023-03-02T08:01:42.875Z,3.40
2023-03-02T08:04:10.284Z,5.00
2023-03-02T08:06:37.647Z,6.40
2023-03-02T08:09:05.095Z,7.70
2023-03-02T08:11:32.824Z,9.30
2023-03-02T08:14:03.563Z,8.10
2023-03-02T08:16:31.055Z,8.30
2023-03-02T08:18:59.918Z,7.60
2023-03-02T08:21:28.768Z,6.30
2023-03-02T08:23:57.717Z,4.90
2023-03-02T08:26:26.682Z,4.30
2023-03-02T08:28:53.830Z,4.40
2023-03-02T08:31:21.108Z,4.10
2023-03-02T08:33:48.310Z,4.10
2023-03-02T08:36:18.140Z,4.00
2023-03-02T08:38:46.766Z,4.20
2023-03-02T08:41:17.338Z,4.20
2023-03-02T08:43:44.641Z,4.10
2023-03-02T08:46:13.586Z,4.70
2023-03-02T08:48:40.972Z,4.30
2023-03-02T08:51:12.116Z,4.30
2023-03-02T08:53:41.892Z,4.90
2023-03-02T08:56:19.549Z,4.80
2023-03-02T08:58:48.330Z,5.00
2023-03-02T09:01:17.536Z,4.90
2023-03-02T09:03:45.161Z,5.00
2023-03-02T09:06:12.537Z,5.00
2023-03-02T09:08:40.341Z,5.20
2023-03-02T09:11:07.868Z,4.70
2023-03-02T09:13:36.082Z,4.50
2023-03-02T09:16:03.656Z,4.60
2023-03-02T09:18:31.105Z,5.00
2023-03-02T09:20:58.773Z,5.50
2023-03-02T09:23:27.300Z,5.60
2023-03-02T09:25:55.403Z,6.50
2023-03-02T09:28:23.643Z,6.90
2023-03-02T09:30:53.404Z,8.00
2023-03-02T09:33:21.578Z,8.00
2023-03-02T09:35:49.116Z,7.40
2023-03-02T09:38:18.343Z,7.00
2023-03-02T09:41:15.714Z,7.00
2023-03-02T09:44:16.599Z,6.80
2023-03-02T09:46:50.094Z,6.40
2023-03-02T09:49:26.323Z,6.30
2023-03-02T09:51:59.255Z,6.40
2023-03-02T09:54:27.206Z,6.30
2023-03-02T09:56:57.844Z,6.10
2023-03-02T09:59:33.113Z,6.20
2023-03-02T10:02:16.264Z,6.30
2023-03-02T10:04:53.325Z,6.20
2023-03-02T10:07:30.347Z,6.20
2023-03-02T10:10:09.331Z,6.50
2023-03-02T10:12:57.044Z,6.30
2023-03-02T10:15:38.779Z,6.70
2023-03-02T10:18:23.573Z,6.50
2023-03-02T10:21:02.941Z,6.30
2023-03-02T10:23:42.639Z,6.30
2023-03-02T10:26:42.413Z,6.40
2023-03-02T10:29:19.091Z,6.70
2023-03-02T10:31:50.103Z,6.90
2023-03-02T10:34:17.539Z,6.90
2023-03-02T10:36:47.840Z,6.70
2023-03-02T10:39:17.001Z,6.40
2023-03-02T10:41:50.511Z,6.30
2023-03-02T10:44:39.716Z,6.30
2023-03-02T10:47:08.638Z,6.40
2023-03-02T10:49:41.658Z,6.80
2023-03-02T10:52:15.864Z,6.90
2023-03-02T10:54:43.344Z,6.90
2023-03-02T10:57:39.730Z,6.70
2023-03-02T11:00:24.532Z,6.70
2023-03-02T11:02:55.335Z,6.50
2023-03-02T11:05:39.167Z,6.60
2023-03-02T11:08:10.249Z,6.60
2023-03-02T11:10:40.099Z,6.60
2023-03-02T11:13:34.130Z,6.90
2023-03-02T11:16:04.724Z,6.80
2023-03-02T11:18:37.714Z,6.70
2023-03-02T11:21:22.496Z,6.70
2023-03-02T11:23:52.551Z,6.90
2023-03-02T11:26:28.052Z,6.70
2023-03-02T11:29:03.379Z,6.60
2023-03-02T11:31:56.893Z,6.60
2023-03-02T11:34:45.029Z,6.50
2023-03-02T11:37:30.509Z,6.50
2023-03-02T11:40:09.352Z,6.30
2023-03-02T11:42:40.341Z,6.50
2023-03-02T11:45:30.006Z,6.50
2023-03-02T11:48:23.575Z,6.60
2023-03-02T11:51:12.074Z,6.50
2023-03-02T11:54:06.237Z,6.40
2023-03-02T11:56:37.066Z,6.30
2023-03-02T11:59:12.231Z,6.40
2023-03-02T12:01:40.654Z,6.30
2023-03-02T12:04:38.035Z,6.20
2023-03-02T12:07:19.394Z,6.20
2023-03-02T12:10:02.560Z,6.20
2023-03-02T12:12:41.250Z,6.30
2023-03-02T12:15:39.680Z,6.30
2023-03-02T12:18:22.428Z,6.40
2023-03-02T12:21:22.612Z,6.20
2023-03-02T12:23:50.012Z,6.20
2023-03-02T12:26:20.468Z,6.00
2023-03-02T12:29:02.420Z,6.10
2023-03-02T12:31:58.968Z,6.20
2023-03-02T12:35:01.203Z,6.10
2023-03-02T12:37:33.552Z,6.00
2023-03-02T12:40:33.860Z,6.00
2023-03-02T12:43:22.452Z,5.80
2023-03-02T12:46:03.777Z,5.80
2023-03-02T12:48:51.022Z,5.90
2023-03-02T12:51:22.755Z,6.00
2023-03-02T12:54:01.689Z,6.00
2023-03-02T12:56:28.854Z,6.00
2023-03-02T12:58:56.103Z,6.10
2023-03-02T13:01:31.379Z,6.10
2023-03-02T13:03:59.410Z,6.20
2023-03-02T13:06:32.920Z,6.20
2023-03-02T13:09:00.854Z,6.20
2023-03-02T13:11:32.992Z,6.30
2023-03-02T13:14:03.736Z,6.20
2023-03-02T13:16:34.445Z,6.10
2023-03-02T13:19:06.433Z,6.00
2023-03-02T13:21:38.271Z,6.10
2023-03-02T13:24:28.254Z,6.20
2023-03-02T13:27:03.862Z,6.10
2023-03-02T13:29:32.055Z,6.10
2023-03-02T13:32:25.816Z,6.10
2023-03-02T13:34:56.119Z,6.10
2023-03-02T13:37:37.831Z,6.10
2023-03-02T13:40:30.037Z,6.00
2023-03-02T13:42:57.952Z,5.80
2023-03-02T13:45:32.494Z,5.60
2023-03-02T13:48:12.633Z,5.60
2023-03-02T13:50:40.038Z,5.50
2023-03-02T13:53:07.556Z,5.50
2023-03-02T13:55:35.404Z,5.50
2023-03-02T13:58:03.036Z,5.40
2023-03-02T14:00:36.041Z,5.40
2023-03-02T14:03:21.241Z,5.40
2023-03-02T14:05:48.435Z,5.40
2023-03-02T14:08:15.548Z,5.40
2023-03-02T14:10:43.771Z,5.40
2023-03-02T14:13:21.359Z,5.40
2023-03-02T14:15:51.778Z,5.40
2023-03-02T14:18:40.213Z,5.30
2023-03-02T14:21:13.939Z,5.40
2023-03-02T14:23:41.551Z,5.50
2023-03-02T14:26:33.060Z,5.50
2023-03-02T14:29:05.919Z,5.50
2023-03-02T14:31:34.556Z,5.60
2023-03-02T14:34:02.147Z,5.60
2023-03-02T14:36:34.687Z,5.50
2023-03-02T14:39:05.964Z,5.50
2023-03-02T14:41:43.943Z,5.60
2023-03-02T14:44:18.833Z,5.50
2023-03-02T14:46:46.348Z,5.40
2023-03-02T14:49:13.929Z,5.40
2023-03-02T14:51:43.358Z,5.50
2023-03-02T14:54:17.801Z,5.60
2023-03-02T14:56:45.434Z,5.70
2023-03-02T14:59:15.557Z,5.80
2023-03-02T15:01:44.853Z,5.80
2023-03-02T15:04:17.965Z,5.90
2023-03-02T15:06:46.190Z,6.00
2023-03-02T15:09:13.595Z,6.00
2023-03-02T15:11:44.519Z,5.90
2023-03-02T15:14:12.357Z,5.90
2023-03-02T15:16:40.100Z,5.80
2023-03-02T15:19:07.482Z,5.80
2023-03-02T15:21:35.093Z,5.80
2023-03-02T15:24:02.745Z,5.70
2023-03-02T15:26:30.218Z,5.60
2023-03-02T15:28:58.517Z,5.50
2023-03-02T15:31:27.735Z,5.40
2023-03-02T15:33:55.931Z,5.20
2023-03-02T15:36:23.864Z,5.00
2023-03-02T15:38:51.317Z,4.90
2023-03-02T15:41:19.823Z,4.70
2023-03-02T15:43:54.982Z,4.60
2023-03-02T15:46:23.843Z,4.70
2023-03-02T15:48:53.820Z,4.90
2023-03-02T15:51:24.822Z,5.30
2023-03-02T15:53:52.153Z,5.50
2023-03-02T15:56:19.596Z,5.80
2023-03-02T15:58:50.570Z,6.00
2023-03-02T16:01:20.847Z,6.20
2023-03-02T16:03:48.296Z,6.30
2023-03-02T16:06:18.477Z,6.40
2023-03-02T16:08:47.512Z,6.40
2023-03-02T16:11:18.731Z,6.30
2023-03-02T16:13:46.286Z,6.30
2023-03-02T16:16:13.633Z,6.30
2023-03-02T16:18:40.804Z,6.20
2023-03-02T16:21:13.579Z,6.20
2023-03-02T16:23:40.774Z,6.10
2023-03-02T16:26:10.584Z,6.10
2023-03-02T16:28:38.271Z,6.10
2023-03-02T16:31:14.326Z,6.10
2023-03-02T16:33:42.268Z,6.10
2023-03-02T16:36:10.688Z,6.10
2023-03-02T16:38:39.489Z,6.10
2023-03-02T16:41:24.120Z,6.10
2023-03-02T16:43:56.840Z,6.10
2023-03-02T16:46:30.415Z,6.10
2023-03-02T16:49:01.376Z,6.10
2023-03-02T16:51:32.328Z,6.00
2023-03-02T16:53:59.844Z,6.00
2023-03-02T16:56:30.417Z,6.00
2023-03-02T16:58:59.970Z,5.90
2023-03-02T17:01:28.464Z,6.00
2023-03-02T17:03:56.544Z,6.00
2023-03-02T17:06:24.300Z,6.00
2023-03-02T17:08:53.357Z,5.90
2023-03-02T17:11:22.188Z,5.80
2023-03-02T17:13:49.504Z,5.80
2023-03-02T17:16:22.397Z,5.80
2023-03-02T17:18:52.929Z,5.70
2023-03-02T17:21:20.414Z,5.60
2023-03-02T17:23:48.812Z,5.50
2023-03-02T17:26:17.354Z,5.50
2023-03-02T17:28:44.683Z,5.40
2023-03-02T17:31:12.254Z,5.40
2023-03-02T17:33:39.938Z,5.50
2023-03-02T17:36:09.814Z,5.40
2023-03-02T17:38:36.909Z,5.40
2023-03-02T17:41:06.137Z,5.30
2023-03-02T17:43:39.141Z,5.20
2023-03-02T17:46:20.729Z,5.20
2023-03-02T17:48:52.477Z,5.10
2023-03-02T17:51:22.372Z,5.10
2023-03-02T17:53:51.484Z,5.10
2023-03-02T17:56:22.302Z,5.00
2023-03-02T17:58:57.773Z,5.10
2023-03-02T18:01:25.488Z,5.00
2023-03-02T18:03:53.185Z,5.10
2023-03-02T18:06:20.936Z,5.20
2023-03-02T18:08:49.675Z,5.20
2023-03-02T18:11:19.050Z,5.30
2023-03-02T18:13:46.934Z,5.30
2023-03-02T18:16:14.160Z,5.30
2023-03-02T18:18:41.354Z,5.30
2023-03-02T18:21:08.681Z,5.40
2023-03-02T18:23:35.928Z,5.40
2023-03-02T18:26:03.358Z,5.40
2023-03-02T18:28:30.721Z,5.40
2023-03-02T18:30:58.291Z,5.40
2023-03-02T18:33:25.780Z,5.40
2023-03-02T18:35:53.388Z,5.40
2023-03-02T18:38:20.867Z,5.40
2023-03-02T18:40:48.236Z,5.40
2023-03-02T18:43:15.346Z,5.40
2023-03-02T18:45:42.878Z,5.30
2023-03-02T18:48:10.324Z,5.40
2023-03-02T18:50:38.741Z,5.40
2023-03-02T18:53:06.602Z,5.40
2023-03-02T18:55:33.767Z,5.40
2023-03-02T18:58:01.326Z,5.40
2023-03-02T19:00:29.187Z,5.20
2023-03-02T19:02:57.645Z,5.10
2023-03-02T19:05:27.114Z,5.10
2023-03-02T19:07:55.094Z,5.10
2023-03-02T19:10:22.652Z,5.10
2023-03-02T19:12:50.471Z,5.10
2023-03-02T19:15:18.221Z,5.10
2023-03-02T19:17:46.153Z,5.00
2023-03-02T19:20:15.745Z,4.90
2023-03-02T19:22:42.936Z,4.80
2023-03-02T19:25:11.335Z,4.80
2023-03-02T19:27:38.814Z,4.80
2023-03-02T19:30:09.063Z,4.80
2023-03-02T19:32:37.785Z,4.80
2023-03-02T19:35:05.647Z,4.70
2023-03-02T19:37:33.557Z,4.60
2023-03-02T19:40:01.424Z,4.60
2023-03-02T19:42:30.722Z,4.50
2023-03-02T19:44:58.656Z,4.50
2023-03-02T19:47:25.826Z,4.40
2023-03-02T19:49:53.180Z,4.20
2023-03-02T19:52:20.585Z,4.20
2023-03-02T19:54:48.017Z,4.10
2023-03-02T19:57:15.429Z,4.10
2023-03-02T19:59:42.847Z,4.10
2023-03-02T20:02:10.416Z,4.00
2023-03-02T20:04:37.800Z,4.00
2023-03-02T20:07:05.081Z,4.00
2023-03-02T20:09:32.878Z,4.00
2023-03-02T20:12:02.870Z,4.00
2023-03-02T20:14:34.054Z,3.90
2023-03-02T20:17:04.506Z,3.90
2023-03-02T20:19:32.255Z,4.00
2023-03-02T20:21:59.462Z,4.00
2023-03-02T20:24:26.879Z,4.10
2023-03-02T20:26:54.056Z,4.10
2023-03-02T20:29:21.213Z,4.10
2023-03-02T20:31:48.532Z,4.10
2023-03-02T20:34:19.247Z,4.00
2023-03-02T20:36:46.690Z,4.00
2023-03-02T20:39:18.728Z,4.00
2023-03-02T20:41:46.251Z,3.90
2023-03-02T20:44:14.885Z,3.80
2023-03-02T20:46:46.757Z,3.80
2023-03-02T20:49:16.184Z,3.70
2023-03-02T20:51:52.965Z,3.60
2023-03-02T20:54:22.445Z,3.60
2023-03-02T20:56:50.680Z,3.50
2023-03-02T20:59:21.898Z,3.50
2023-03-02T21:01:50.435Z,3.50
2023-03-02T21:04:18.223Z,3.50
2023-03-02T21:06:46.449Z,3.50
2023-03-02T21:09:14.368Z,3.50
2023-03-02T21:11:41.722Z,3.50
2023-03-02T21:14:09.489Z,3.50
2023-03-02T21:16:39.215Z,3.60
2023-03-02T21:19:09.933Z,3.60
2023-03-02T21:21:42.071Z,3.60
2023-03-02T21:24:11.891Z,3.70
2023-03-02T21:26:41.707Z,3.70
2023-03-02T21:29:12.039Z,3.70
2023-03-02T21:31:41.121Z,3.70
2023-03-02T21:34:08.784Z,3.70
2023-03-02T21:36:36.666Z,3.70
2023-03-02T21:39:06.960Z,3.60
2023-03-02T21:41:37.934Z,3.60
2023-03-02T21:44:06.188Z,3.60
2023-03-02T21:46:35.545Z,3.60
2023-03-02T21:49:03.525Z,3.60
2023-03-02T21:51:31.420Z,3.70
2023-03-02T21:53:58.631Z,3.70
2023-03-02T21:56:26.722Z,3.70
2023-03-02T21:58:56.699Z,3.70
2023-03-02T22:01:25.538Z,3.80
2023-03-02T22:03:53.380Z,3.70
2023-03-02T22:06:26.173Z,3.70
2023-03-02T22:08:54.422Z,3.80
2023-03-02T22:11:25.402Z,3.80
2023-03-02T22:13:55.561Z,3.70
2023-03-02T22:16:29.331Z,3.80
2023-03-02T22:18:59.208Z,3.80
2023-03-02T22:21:33.412Z,3.80
2023-03-02T22:24:22.351Z,3.70
2023-03-02T22:27:09.052Z,3.70
2023-03-02T22:29:43.258Z,3.70
2023-03-02T22:32:26.580Z,3.80
2023-03-02T22:35:16.074Z,3.70
2023-03-02T22:37:43.900Z,3.70
2023-03-02T22:40:30.747Z,3.70
2023-03-02T22:43:31.128Z,3.70
2023-03-02T22:46:18.864Z,3.70
2023-03-02T22:48:48.840Z,3.70
2023-03-02T22:51:21.914Z,3.80
2023-03-02T22:53:53.473Z,3.80
2023-03-02T22:56:27.374Z,3.60
2023-03-02T22:58:54.810Z,3.60
2023-03-02T23:01:27.089Z,3.60
2023-03-02T23:04:01.578Z,3.60
2023-03-02T23:06:32.220Z,3.50
2023-03-02T23:09:01.943Z,3.50
2023-03-02T23:11:31.849Z,3.50
2023-03-02T23:14:01.865Z,3.50
2023-03-02T23:16:35.483Z,3.60
2023-03-02T23:19:04.185Z,3.50
2023-03-02T23:21:39.239Z,3.50
2023-03-02T23:24:08.488Z,3.60
2023-03-02T23:26:36.285Z,3.50
2023-03-02T23:29:04.616Z,3.50
2023-03-02T23:31:32.148Z,3.50
2023-03-02T23:33:59.631Z,3.50
2023-03-02T23:36:27.978Z,3.60
2023-03-02T23:38:55.110Z,3.50
2023-03-02T23:41:22.308Z,3.50
2023-03-02T23:43:49.455Z,3.50
2023-03-02T23:46:16.623Z,3.50
2023-03-02T23:48:44.229Z,3.50
2023-03-02T23:51:11.808Z,3.40
2023-03-02T23:53:39.292Z,3.30
2023-03-02T23:56:07.419Z,3.30
2023-03-02T23:58:34.965Z,3.30
